Nags Head, North Carolina
Current Conditions -  °F | °C
As of 9:15 PM on Friday 28 Nov 2014 (Local Time) from KFFA Reporting Station
Clear Clear  
Wind Chill: 37°   Ceiling: Unl
Heat Index: 37°   Visibility: 10mi
Dew Point: 22°   Wind: 3mph
Humidity: 54%   Direction: 340°NNW
Pressure: 30.3"   Gusts: NA
Location:  35.96°N, 75.62°W
Report Text: KFFA 290215Z AUTO 34003KT 10SM CLR 03/M05 A3030 RMK AO2 T00301055
Loading
Personal Weather Stations






























Interactive Weather Map New forecast layout! Learn more

10-Day Weather Forecast

Advertisements
Track Severe Weather on mobile